Time;durP1;ratioP1;P1;durP2;ratioP2;P2;SDS_P1;SDS_P2;PMS_P1;PMS_P2;Temp;Humidity;BMP_temperature;BMP_pressure;BME280_temperature;BME280_humidity;BME280_pressure;Samples;Min_cycle;Max_cycle;Signal;HPM_P1;HPM_P2
2023/06/24 00:00:58;;;;;;;13.45;9.45;;;;;;;19.58;76.13;99322.78;4359889;32;33875;-87
2023/06/24 00:03:26;;;;;;;13.85;9.82;;;;;;;19.51;76.92;99325.56;4359791;32;34312;-86
2023/06/24 00:05:56;;;;;;;12.60;9.02;;;;;;;19.18;79.01;99325.38;4360072;32;34451;-88
2023/06/24 00:08:34;;;;;;;14.05;9.50;;;;;;;20.06;73.78;99327.91;4360172;32;33965;-83
2023/06/24 00:11:02;;;;;;;14.02;10.43;;;;;;;19.84;74.98;99332.78;4360282;32;33862;-85
2023/06/24 00:13:30;;;;;;;13.13;9.73;;;;;;;19.70;76.19;99324.34;4409947;27;33879;-84
2023/06/24 00:15:58;;;;;;;13.32;10.50;;;;;;;19.29;77.45;99315.53;4359819;32;33640;-86
2023/06/24 00:18:29;;;;;;;13.32;10.80;;;;;;;19.24;77.56;99311.25;4359726;32;34115;-87
2023/06/24 00:20:56;;;;;;;13.82;10.63;;;;;;;19.65;76.69;99305.16;4346057;32;33318;-84
2023/06/24 00:23:26;;;;;;;18.45;11.32;;;;;;;19.65;76.78;99298.13;4346165;32;34813;-84
2023/06/24 00:25:55;;;;;;;13.30;10.18;;;;;;;19.32;78.09;99304.94;4334699;32;32319;-84
2023/06/24 00:28:23;;;;;;;15.35;11.12;;;;;;;19.75;75.60;99304.06;4345169;32;33838;-88
2023/06/24 00:30:50;;;;;;;14.80;11.12;;;;;;;20.07;74.12;99312.97;4345944;32;34903;-83
2023/06/24 00:33:19;;;;;;;14.60;11.60;;;;;;;19.90;74.61;99303.72;4359458;32;33775;-83
2023/06/24 00:35:47;;;;;;;15.07;11.57;;;;;;;19.44;76.83;99296.81;4345719;32;33335;-84
2023/06/24 00:38:15;;;;;;;15.07;12.07;;;;;;;19.45;76.37;99295.03;4359823;32;34615;-86
2023/06/24 00:40:42;;;;;;;13.35;11.18;;;;;;;19.78;74.07;99292.59;4359631;32;33816;-86
2023/06/24 00:43:10;;;;;;;15.13;11.05;;;;;;;19.46;76.28;99294.13;4359779;32;34506;-84
2023/06/24 00:45:38;;;;;;;16.08;10.93;;;;;;;19.61;75.64;99283.28;4333560;32;32520;-84
2023/06/24 00:48:06;;;;;;;16.12;10.88;;;;;;;19.40;76.30;99279.38;4346164;32;33908;-85
2023/06/24 00:50:35;;;;;;;15.50;10.73;;;;;;;19.86;74.39;99281.00;4346041;32;34267;-84
2023/06/24 00:53:03;;;;;;;14.25;11.30;;;;;;;19.53;75.09;99276.47;4359685;32;34017;-88
2023/06/24 00:55:31;;;;;;;15.23;11.15;;;;;;;19.49;75.51;99290.56;4359767;32;33653;-84
2023/06/24 00:58:01;;;;;;;23.10;10.32;;;;;;;19.38;75.64;99289.03;4345733;32;33857;-85
2023/06/24 01:00:28;;;;;;;14.40;10.82;;;;;;;19.36;76.25;99296.09;4334127;32;33780;-84
2023/06/24 01:02:57;;;;;;;13.75;10.32;;;;;;;19.51;75.10;99283.50;4345887;32;33973;-84
2023/06/24 01:05:26;;;;;;;16.23;10.90;;;;;;;19.51;75.52;99275.63;4359094;32;34435;-84
2023/06/24 01:07:55;;;;;;;14.30;10.57;;;;;;;19.65;75.08;99274.44;4345553;32;34036;-87
2023/06/24 01:10:24;;;;;;;17.25;10.30;;;;;;;19.41;75.38;99267.94;4345839;32;34158;-87
2023/06/24 01:12:52;;;;;;;12.15;10.15;;;;;;;19.44;74.69;99260.00;4359218;32;34285;-85
2023/06/24 01:15:21;;;;;;;13.52;9.50;;;;;;;19.69;73.95;99260.31;4359221;32;34429;-87
2023/06/24 01:18:08;;;;;;;12.93;9.10;;;;;;;19.73;73.42;99269.00;4344943;32;33329;-86
2023/06/24 01:20:47;;;;;;;12.80;8.88;;;;;;;19.43;74.25;99266.16;4357514;32;34962;-86
2023/06/24 01:23:21;;;;;;;13.27;10.55;;;;;;;19.23;74.59;99263.06;4359104;32;34325;-87
2023/06/24 01:26:10;;;;;;;13.90;10.00;;;;;;;19.09;75.96;99268.63;4359153;32;33581;-83
2023/06/24 01:28:56;;;;;;;14.50;9.57;;;;;;;19.63;72.25;99268.38;4358411;32;33809;-84
2023/06/24 01:31:23;;;;;;;;;;;;;;;19.44;74.15;99262.63;4353662;32;34192;-85
2023/06/24 01:34:01;;;;;;;12.18;8.45;;;;;;;19.07;75.28;99259.91;4358950;32;35011;-87
2023/06/24 01:36:30;;;;;;;13.48;8.05;;;;;;;19.01;75.75;99256.50;4345863;32;33830;-84
2023/06/24 01:39:02;;;;;;;15.55;8.32;;;;;;;18.93;75.24;99249.66;4345315;32;34676;-86
2023/06/24 01:41:41;;;;;;;11.55;7.55;;;;;;;19.32;73.23;99240.97;4332976;32;33110;-88
2023/06/24 01:44:10;;;;;;;10.45;7.62;;;;;;;19.19;73.63;99241.25;4345309;32;33738;-88
2023/06/24 01:46:40;;;;;;;11.38;7.82;;;;;;;19.13;73.58;99236.13;4346683;32;33622;-85
2023/06/24 01:49:12;;;;;;;10.18;7.72;;;;;;;18.99;73.89;99242.56;4347565;32;34929;-84
2023/06/24 01:51:40;;;;;;;11.93;8.32;;;;;;;19.36;73.13;99237.41;4360974;32;34989;-84
2023/06/24 01:54:19;;;;;;;11.60;7.40;;;;;;;19.49;73.13;99232.72;4348522;32;33792;-87
2023/06/24 01:56:47;;;;;;;11.30;8.00;;;;;;;19.07;72.93;99228.38;4347853;32;33583;-84
2023/06/24 01:59:17;;;;;;;11.05;7.47;;;;;;;19.40;71.62;99233.81;4347462;32;35069;-82
2023/06/24 02:01:45;;;;;;;9.77;7.03;;;;;;;19.33;72.06;99217.28;4347633;32;33807;-83
2023/06/24 02:04:13;;;;;;;10.68;7.28;;;;;;;19.52;71.65;99222.16;4347484;32;34941;-87
2023/06/24 02:06:41;;;;;;;10.77;6.70;;;;;;;19.39;72.68;99216.28;4346772;32;32835;-83
2023/06/24 02:09:09;;;;;;;11.05;7.57;;;;;;;19.22;73.17;99214.03;4347765;32;34360;-83
2023/06/24 02:11:38;;;;;;;9.77;7.25;;;;;;;19.12;73.22;99223.00;4347638;32;35055;-83
2023/06/24 02:14:07;;;;;;;10.80;7.75;;;;;;;19.08;73.36;99229.22;4335135;32;33304;-88
2023/06/24 02:16:35;;;;;;;11.75;7.45;;;;;;;19.31;72.58;99242.75;4346949;32;33827;-83
2023/06/24 02:19:04;;;;;;;9.65;7.30;;;;;;;19.08;73.51;99242.34;4347316;32;34709;-83
2023/06/24 02:21:35;;;;;;;10.02;6.93;;;;;;;18.99;74.29;99237.31;4360879;32;34846;-83
2023/06/24 02:24:03;;;;;;;11.27;7.75;;;;;;;19.20;72.25;99231.59;4347610;32;33500;-87
2023/06/24 02:26:34;;;;;;;10.95;7.05;;;;;;;19.21;72.13;99228.09;4347463;32;33453;-85
2023/06/24 02:29:04;;;;;;;16.30;6.75;;;;;;;19.25;71.46;99221.88;4360642;32;34062;-84
2023/06/24 02:31:31;;;;;;;12.15;6.85;;;;;;;18.95;72.94;99239.13;4347064;32;35078;-83
2023/06/24 02:33:59;;;;;;;12.60;7.00;;;;;;;19.57;70.79;99239.53;4361031;32;34329;-83
2023/06/24 02:36:26;;;;;;;9.90;7.20;;;;;;;18.91;72.45;99240.94;4346966;32;34324;-82
2023/06/24 02:38:54;;;;;;;11.52;7.62;;;;;;;19.08;72.71;99237.09;4334655;32;32700;-87
2023/06/24 02:41:22;;;;;;;12.05;8.13;;;;;;;18.90;72.21;99243.59;4360294;32;34035;-86
2023/06/24 02:43:49;;;;;;;14.38;8.20;;;;;;;19.13;72.38;99245.75;4347572;32;33977;-87
2023/06/24 02:46:17;;;;;;;12.75;7.37;;;;;;;19.18;72.26;99234.25;4360431;32;34667;-84
2023/06/24 02:48:45;;;;;;;13.98;7.75;;;;;;;19.00;72.29;99245.16;4360187;32;34420;-84
2023/06/24 02:51:12;;;;;;;11.55;6.65;;;;;;;19.11;71.59;99242.31;4335467;32;34205;-84
2023/06/24 02:53:41;;;;;;;10.00;6.97;;;;;;;19.31;71.21;99255.03;4360837;32;34026;-82
2023/06/24 02:56:09;;;;;;;10.63;6.87;;;;;;;19.50;70.45;99244.97;4347530;32;33234;-86
2023/06/24 02:58:40;;;;;;;10.30;6.25;;;;;;;19.45;70.47;99258.22;4360049;32;34615;-83
2023/06/24 03:01:10;;;;;;;9.35;6.50;;;;;;;19.23;70.44;99259.56;4360811;32;35185;-87
2023/06/24 03:03:40;;;;;;;12.15;6.57;;;;;;;19.30;70.31;99264.69;4360304;32;34016;-87
2023/06/24 03:06:12;;;;;;;10.10;5.95;;;;;;;19.07;71.30;99277.44;4360730;32;33597;-83
2023/06/24 03:08:40;;;;;;;9.18;6.45;;;;;;;18.87;72.31;99270.81;4346913;32;34585;-86
2023/06/24 03:11:12;;;;;;;11.73;5.62;;;;;;;18.99;71.93;99266.22;4347313;32;33856;-83
2023/06/24 03:13:40;;;;;;;9.85;5.40;;;;;;;18.94;70.69;99263.66;4360564;32;33746;-88
2023/06/24 03:16:12;;;;;;;8.85;5.70;;;;;;;18.66;72.29;99252.78;4334684;32;33007;-85
2023/06/24 03:18:41;;;;;;;8.30;5.25;;;;;;;19.03;71.61;99252.13;4347594;32;34600;-84
2023/06/24 03:21:10;;;;;;;10.80;4.62;;;;;;;19.01;71.33;99246.87;4347126;32;34048;-86
2023/06/24 03:23:39;;;;;;;8.68;4.43;;;;;;;19.33;70.02;99246.22;4346864;32;34049;-83
2023/06/24 03:26:07;;;;;;;8.65;5.20;;;;;;;19.14;69.81;99264.13;4347094;32;32574;-83
2023/06/24 03:28:35;;;;;;;9.65;4.50;;;;;;;19.09;69.09;99262.47;4346466;32;34644;-82
2023/06/24 03:31:04;;;;;;;8.65;4.40;;;;;;;18.85;70.90;99255.97;4360551;32;33529;-85
2023/06/24 03:33:32;;;;;;;8.90;4.60;;;;;;;18.94;70.55;99258.41;4360379;32;34111;-85
2023/06/24 03:36:00;;;;;;;6.78;4.30;;;;;;;19.09;69.90;99265.09;4360286;32;33571;-85
2023/06/24 03:38:27;;;;;;;7.72;3.80;;;;;;;18.85;70.57;99264.69;4360487;32;34631;-85
2023/06/24 03:40:55;;;;;;;8.70;4.40;;;;;;;18.81;70.53;99268.28;4347347;32;34149;-83
2023/06/24 03:43:23;;;;;;;6.78;3.53;;;;;;;18.92;70.13;99270.72;4360540;32;33991;-86
2023/06/24 03:45:51;;;;;;;7.45;3.90;;;;;;;19.30;67.84;99282.22;4359674;32;33795;-87
2023/06/24 03:48:19;;;;;;;10.07;3.83;;;;;;;19.05;69.01;99284.47;4360703;32;34868;-82
2023/06/24 03:50:47;;;;;;;6.32;3.80;;;;;;;19.23;67.85;99286.72;4360332;32;35151;-86
2023/06/24 03:53:14;;;;;;;6.32;3.40;;;;;;;18.99;69.48;99284.59;4360529;32;34045;-86
2023/06/24 03:55:42;;;;;;;7.30;3.53;;;;;;;19.08;68.84;99294.91;4360102;32;34434;-88
2023/06/24 03:58:10;;;;;;;11.40;3.75;;;;;;;19.14;68.74;99316.69;4359757;32;33080;-84
2023/06/24 04:00:40;;;;;;;10.38;3.20;;;;;;;19.18;68.38;99314.87;4360651;32;33859;-83
2023/06/24 04:03:08;;;;;;;7.22;2.65;;;;;;;19.24;67.83;99317.34;4360530;32;34034;-84
2023/06/24 04:05:36;;;;;;;6.03;2.40;;;;;;;19.14;68.14;99321.94;4359791;32;34509;-83
2023/06/24 04:08:05;;;;;;;6.35;2.60;;;;;;;19.26;66.87;99325.22;4359856;32;33896;-87
2023/06/24 04:10:33;;;;;;;5.68;2.20;;;;;;;18.94;67.71;99319.72;4349686;32;34362;-87
2023/06/24 04:13:01;;;;;;;4.25;2.05;;;;;;;19.52;66.18;99332.59;4364017;32;34739;-83
2023/06/24 04:15:28;;;;;;;5.50;2.22;;;;;;;19.60;65.83;99325.41;4360447;32;34621;-86
2023/06/24 04:17:56;;;;;;;5.05;1.90;;;;;;;19.72;65.68;99340.09;4334417;32;32441;-83
2023/06/24 04:20:24;;;;;;;6.70;1.80;;;;;;;19.98;64.02;99321.09;4360088;32;34662;-84
2023/06/24 04:22:51;;;;;;;5.90;1.58;;;;;;;20.05;63.39;99325.31;4359880;32;34415;-85
2023/06/24 04:25:19;;;;;;;5.35;1.77;;;;;;;19.63;63.97;99328.00;4359931;32;33416;-84
2023/06/24 04:27:46;;;;;;;3.78;1.60;;;;;;;19.76;63.93;99326.81;4334001;32;32346;-83
2023/06/24 04:30:14;;;;;;;4.20;1.37;;;;;;;20.37;62.63;99314.00;4360272;32;33824;-84
2023/06/24 04:32:42;;;;;;;3.12;1.45;;;;;;;20.38;61.92;99316.63;4359707;32;34213;-85
2023/06/24 04:35:10;;;;;;;2.55;1.00;;;;;;;20.59;61.89;99323.13;4357261;32;33497;-83
2023/06/24 04:37:37;;;;;;;2.62;1.35;;;;;;;20.38;61.26;99328.88;4361159;32;34064;-84
2023/06/24 04:40:06;;;;;;;5.90;1.50;;;;;;;20.61;61.15;99334.50;4374831;32;34934;-88
2023/06/24 04:42:33;;;;;;;4.68;1.20;;;;;;;20.13;62.71;99340.03;4353988;32;33836;-84
2023/06/24 04:45:02;;;;;;;3.12;1.10;;;;;;;19.96;63.12;99318.47;4358769;32;32360;-85
2023/06/24 04:47:29;;;;;;;3.33;1.12;;;;;;;20.15;62.38;99326.81;4359143;32;34099;-83
2023/06/24 04:49:57;;;;;;;4.32;1.00;;;;;;;20.62;61.05;99309.88;4347444;32;34008;-85
2023/06/24 04:52:24;;;;;;;6.28;0.93;;;;;;;20.57;61.04;99311.78;4346526;32;32701;-86
2023/06/24 04:54:52;;;;;;;2.78;1.00;;;;;;;20.33;61.51;99323.75;4345546;32;33601;-81
2023/06/24 04:57:27;;;;;;;3.40;0.90;;;;;;;20.77;59.92;99321.78;4348643;32;33570;-80
2023/06/24 04:59:55;;;;;;;;;;;;;;;21.13;59.53;99317.28;4358676;32;33988;-82
2023/06/24 05:02:25;;;;;;;3.47;1.10;;;;;;;20.93;59.15;99316.13;4346687;32;34344;-80
2023/06/24 05:04:53;;;;;;;1.85;0.70;;;;;;;21.42;58.91;99333.25;4363908;32;34359;-81
2023/06/24 05:07:21;;;;;;;6.18;1.00;;;;;;;21.48;58.37;99327.78;4333795;32;32800;-80
2023/06/24 05:09:49;;;;;;;1.30;0.68;;;;;;;21.70;58.02;99318.31;4359195;32;34487;-81
2023/06/24 05:12:16;;;;;;;2.95;0.90;;;;;;;21.99;57.56;99324.50;4347418;32;34357;-81
2023/06/24 05:14:44;;;;;;;1.30;0.68;;;;;;;21.83;57.61;99318.81;4374235;32;33332;-80
2023/06/24 05:17:12;;;;;;;3.10;0.62;;;;;;;21.93;57.30;99319.38;4354757;32;33404;-81
2023/06/24 05:19:39;;;;;;;1.12;0.50;;;;;;;21.60;58.08;99322.16;4358912;32;34242;-84
2023/06/24 05:22:07;;;;;;;1.67;0.57;;;;;;;22.29;56.68;99333.25;4361295;32;34905;-84
2023/06/24 05:24:34;;;;;;;1.85;0.50;;;;;;;22.35;55.88;99322.50;4360945;32;33571;-81
2023/06/24 05:27:06;;;;;;;1.20;0.52;;;;;;;21.96;56.65;99321.94;4361578;32;33872;-85
2023/06/24 05:29:34;;;;;;;5.68;0.62;;;;;;;22.04;56.65;99323.41;4361216;32;33808;-86
2023/06/24 05:32:03;;;;;;;1.85;0.40;;;;;;;21.92;57.17;99322.94;4356475;32;34063;-83
2023/06/24 05:34:31;;;;;;;2.70;0.50;;;;;;;22.37;56.37;99322.44;4361282;32;33674;-86
2023/06/24 05:36:58;;;;;;;1.25;0.50;;;;;;;22.11;56.74;99324.94;4367391;32;34789;-86
2023/06/24 05:39:26;;;;;;;3.03;0.60;;;;;;;21.71;57.93;99320.06;4350948;32;33734;-85
2023/06/24 05:41:53;;;;;;;2.60;0.73;;;;;;;21.93;56.87;99332.59;4361294;32;33881;-85
2023/06/24 05:44:22;;;;;;;4.75;0.70;;;;;;;21.56;57.23;99344.25;4360966;32;34674;-83
2023/06/24 05:46:52;;;;;;;2.42;0.50;;;;;;;21.42;58.35;99343.78;4361140;32;34740;-85
2023/06/24 05:49:19;;;;;;;1.70;0.50;;;;;;;21.86;57.44;99345.13;4360554;32;34367;-84
2023/06/24 05:51:47;;;;;;;3.00;0.70;;;;;;;21.95;57.22;99349.25;4363891;32;33818;-85
2023/06/24 05:54:14;;;;;;;2.45;0.50;;;;;;;21.63;56.62;99353.72;4376104;32;34429;-86
2023/06/24 05:56:42;;;;;;;1.33;0.55;;;;;;;21.28;58.82;99352.91;4376335;32;33875;-84
2023/06/24 05:59:10;;;;;;;2.35;0.43;;;;;;;21.86;57.95;99356.53;4367252;32;34231;-83
2023/06/24 06:01:37;;;;;;;3.15;0.70;;;;;;;21.37;58.90;99357.12;4362925;32;34281;-83
2023/06/24 06:04:05;;;;;;;5.20;0.60;;;;;;;21.27;59.15;99368.78;4363131;32;33681;-87
2023/06/24 06:06:33;;;;;;;2.78;0.60;;;;;;;21.46;58.61;99366.53;4360712;32;33599;-84
2023/06/24 06:09:01;;;;;;;1.73;0.68;;;;;;;21.28;58.97;99366.09;4360573;32;34153;-82
2023/06/24 06:11:28;;;;;;;2.87;0.60;;;;;;;21.73;57.96;99376.28;4361061;32;34989;-85
2023/06/24 06:13:56;;;;;;;4.32;0.68;;;;;;;21.51;59.33;99361.97;4360522;32;33365;-84
2023/06/24 06:16:23;;;;;;;2.10;0.50;;;;;;;22.08;56.86;99371.72;4360855;32;33899;-85
2023/06/24 06:18:51;;;;;;;1.60;0.65;;;;;;;22.24;57.33;99382.72;4360837;32;34363;-85
2023/06/24 06:21:19;;;;;;;2.12;0.70;;;;;;;22.23;57.26;99384.47;4360211;32;34975;-83
2023/06/24 06:23:46;;;;;;;1.00;0.55;;;;;;;22.42;56.82;99378.59;4345113;32;33656;-83
2023/06/24 06:26:14;;;;;;;4.07;0.77;;;;;;;22.21;56.97;99378.38;4360471;32;33531;-85
2023/06/24 06:28:41;;;;;;;2.25;0.80;;;;;;;22.33;57.37;99366.56;4332440;33;33940;-84
2023/06/24 06:31:09;;;;;;;2.87;0.60;;;;;;;22.49;56.53;99386.28;4332684;33;33487;-82
2023/06/24 06:33:37;;;;;;;1.80;0.70;;;;;;;22.56;56.36;99384.31;4356805;32;33676;-84
2023/06/24 06:36:04;;;;;;;4.15;0.62;;;;;;;22.99;55.82;99382.91;4360363;32;34142;-85
2023/06/24 06:38:33;;;;;;;2.00;0.80;;;;;;;23.27;53.83;99381.03;4347057;32;32586;-83
2023/06/24 06:41:00;;;;;;;1.02;0.60;;;;;;;22.66;55.87;99393.69;4373284;32;35013;-84
2023/06/24 06:43:28;;;;;;;2.80;0.70;;;;;;;22.63;55.71;99385.84;4346886;32;34326;-84
2023/06/24 06:45:56;;;;;;;2.12;0.62;;;;;;;22.72;56.07;99384.66;4346728;32;34800;-84
2023/06/24 06:48:23;;;;;;;3.00;0.80;;;;;;;23.15;56.42;99394.69;4346895;32;34905;-84
2023/06/24 06:50:53;;;;;;;1.35;0.57;;;;;;;23.19;54.63;99390.16;4360282;32;34766;-86
2023/06/24 06:53:20;;;;;;;1.90;0.60;;;;;;;23.09;56.04;99394.91;4360547;32;33841;-84
2023/06/24 06:55:48;;;;;;;1.75;0.60;;;;;;;23.30;55.25;99388.00;4360697;32;33458;-88
2023/06/24 06:58:15;;;;;;;2.20;0.70;;;;;;;23.41;54.57;99385.84;4360019;32;34158;-84
2023/06/24 07:00:43;;;;;;;3.17;0.90;;;;;;;24.22;53.39;99396.03;4346865;32;34847;-85
2023/06/24 07:03:10;;;;;;;2.50;0.90;;;;;;;23.62;54.22;99389.47;4359945;32;33777;-83
2023/06/24 07:05:38;;;;;;;1.73;0.70;;;;;;;23.73;53.99;99386.47;4360139;32;34000;-85
2023/06/24 07:08:06;;;;;;;3.33;1.00;;;;;;;23.93;54.49;99383.03;4360394;32;35033;-83
2023/06/24 07:10:34;;;;;;;3.33;0.77;;;;;;;24.04;54.76;99375.56;4360348;32;35183;-86
2023/06/24 07:13:02;;;;;;;2.95;0.70;;;;;;;24.52;51.87;99382.50;4359973;32;34413;-85
2023/06/24 07:15:29;;;;;;;2.37;0.90;;;;;;;24.14;53.37;99374.28;4360580;32;34072;-84
2023/06/24 07:17:57;;;;;;;4.55;1.00;;;;;;;24.18;53.90;99365.28;4360329;32;34470;-87
2023/06/24 07:20:24;;;;;;;4.10;0.90;;;;;;;23.78;53.23;99376.53;4346029;32;34315;-82
2023/06/24 07:22:52;;;;;;;2.05;0.82;;;;;;;24.21;52.32;99380.19;4360471;32;33764;-85
2023/06/24 07:25:19;;;;;;;4.62;0.93;;;;;;;24.16;52.46;99372.41;4361032;32;33673;-83
2023/06/24 07:27:47;;;;;;;2.03;0.80;;;;;;;23.60;55.09;99386.03;4359907;32;33975;-83
2023/06/24 07:30:14;;;;;;;2.58;0.90;;;;;;;23.60;55.01;99393.06;4359465;32;33997;-84
2023/06/24 07:32:42;;;;;;;2.30;0.88;;;;;;;23.44;55.14;99384.84;4333201;32;33379;-84
2023/06/24 07:35:10;;;;;;;3.08;0.88;;;;;;;23.95;54.72;99399.75;4345226;32;33769;-84
2023/06/24 07:37:40;;;;;;;3.35;0.82;;;;;;;24.37;53.43;99402.50;4360265;32;33923;-85
2023/06/24 07:40:08;;;;;;;2.30;0.65;;;;;;;24.33;53.65;99413.28;4351827;32;35004;-83
2023/06/24 07:42:35;;;;;;;2.70;0.73;;;;;;;24.15;53.35;99428.13;4346178;32;32183;-85
2023/06/24 07:45:03;;;;;;;4.35;0.68;;;;;;;24.12;54.10;99430.88;4359918;32;33978;-85
2023/06/24 07:47:31;;;;;;;2.75;1.10;;;;;;;24.54;53.65;99424.84;4360173;32;33824;-85
2023/06/24 07:49:59;;;;;;;2.28;0.82;;;;;;;24.13;53.13;99412.28;4359425;32;34159;-85
2023/06/24 07:52:26;;;;;;;2.35;1.20;;;;;;;24.42;52.99;99418.25;4359079;32;33495;-84
2023/06/24 07:54:54;;;;;;;2.78;1.08;;;;;;;24.62;53.40;99415.66;4360224;32;34779;-85
2023/06/24 07:57:22;;;;;;;3.03;1.23;;;;;;;24.83;52.44;99402.44;4360249;32;33698;-86
2023/06/24 07:59:49;;;;;;;3.97;0.90;;;;;;;24.66;51.65;99411.97;4360480;32;34236;-83
2023/06/24 08:02:17;;;;;;;1.70;0.80;;;;;;;24.79;52.72;99420.28;4360330;32;34506;-82
2023/06/24 08:04:45;;;;;;;3.05;0.90;;;;;;;24.90;52.27;99417.19;4360048;32;33851;-84
2023/06/24 08:07:12;;;;;;;3.42;0.93;;;;;;;24.92;52.33;99410.88;4348454;32;34994;-85
2023/06/24 08:09:41;;;;;;;4.60;0.77;;;;;;;24.80;53.18;99427.28;4360382;32;34167;-83
2023/06/24 08:12:09;;;;;;;1.58;0.88;;;;;;;24.98;51.67;99423.03;4360074;32;34075;-86
2023/06/24 08:14:37;;;;;;;2.08;0.80;;;;;;;25.22;51.80;99422.00;4359574;32;33795;-86
2023/06/24 08:17:04;;;;;;;3.17;1.00;;;;;;;25.67;51.60;99428.00;4419548;27;32434;-84
2023/06/24 08:19:32;;;;;;;2.85;1.00;;;;;;;25.06;52.00;99425.34;4358287;32;34177;-84
2023/06/24 08:21:59;;;;;;;2.65;0.93;;;;;;;24.74;53.37;99436.37;4373183;32;33547;-83
2023/06/24 08:24:27;;;;;;;3.33;1.00;;;;;;;25.06;51.60;99433.31;4360292;32;33945;-82
2023/06/24 08:26:55;;;;;;;3.70;0.98;;;;;;;24.65;52.49;99435.88;4367396;32;33632;-84
2023/06/24 08:29:22;;;;;;;2.08;0.88;;;;;;;24.16;53.44;99424.53;4346587;32;34920;-84
2023/06/24 08:31:50;;;;;;;4.28;1.08;;;;;;;24.25;52.77;99430.34;4359805;32;32749;-84
2023/06/24 08:34:17;;;;;;;3.35;0.98;;;;;;;24.21;54.16;99428.75;4371309;32;34178;-84
2023/06/24 08:36:45;;;;;;;2.92;0.90;;;;;;;24.63;53.50;99445.69;4374804;32;34040;-82
2023/06/24 08:39:12;;;;;;;1.92;0.90;;;;;;;25.22;50.83;99448.53;4374349;32;35036;-83
2023/06/24 08:41:40;;;;;;;1.45;0.77;;;;;;;25.16;51.10;99438.19;4361284;32;34381;-83
2023/06/24 08:44:11;;;;;;;2.50;0.82;;;;;;;24.97;51.77;99442.53;4361916;32;33462;-82
2023/06/24 08:46:38;;;;;;;2.45;1.10;;;;;;;24.68;51.93;99441.91;4359593;32;34971;-84
2023/06/24 08:49:06;;;;;;;1.95;0.95;;;;;;;24.22;54.26;99448.16;4346347;32;34015;-84
2023/06/24 08:51:42;;;;;;;6.90;1.25;;;;;;;24.31;53.72;99441.62;4359754;32;33682;-84
2023/06/24 08:54:09;;;;;;;;;;;;;;;23.76;54.30;99434.84;4390546;27;34591;-84
2023/06/24 08:56:40;;;;;;;1.75;0.90;;;;;;;24.09;54.24;99441.56;4346410;32;34039;-85
2023/06/24 08:59:08;;;;;;;1.80;0.80;;;;;;;23.72;54.92;99435.91;4335888;32;34216;-84
2023/06/24 09:01:37;;;;;;;2.22;0.90;;;;;;;23.52;55.92;99443.63;4348260;32;33676;-85
2023/06/24 09:04:05;;;;;;;3.97;0.90;;;;;;;24.06;52.84;99436.44;4360844;32;35051;-82
2023/06/24 09:06:33;;;;;;;1.98;1.10;;;;;;;23.85;54.78;99424.84;4361407;32;33811;-86
2023/06/24 09:09:01;;;;;;;2.85;0.82;;;;;;;24.04;53.31;99429.37;4361253;32;34051;-82
2023/06/24 09:11:29;;;;;;;2.12;1.00;;;;;;;23.65;55.25;99426.41;4361347;32;34493;-82
2023/06/24 09:14:00;;;;;;;2.28;1.08;;;;;;;23.87;54.34;99420.38;4361190;32;34724;-81
2023/06/24 09:16:29;;;;;;;2.00;0.90;;;;;;;23.82;56.43;99425.81;4361220;32;34017;-83
2023/06/24 09:18:57;;;;;;;4.35;0.80;;;;;;;24.01;55.37;99437.44;4347931;32;33974;-81
2023/06/24 09:21:25;;;;;;;3.08;0.90;;;;;;;24.72;55.30;99440.00;4361382;32;33350;-80
2023/06/24 09:23:54;;;;;;;1.90;0.82;;;;;;;25.17;51.24;99439.91;4363982;32;34074;-86
2023/06/24 09:26:26;;;;;;;2.53;1.00;;;;;;;24.85;52.65;99443.00;4361730;32;33949;-83
2023/06/24 09:28:56;;;;;;;3.70;0.93;;;;;;;24.80;53.61;99435.25;4361471;32;34288;-82
2023/06/24 09:31:24;;;;;;;1.37;0.68;;;;;;;25.36;51.22;99433.81;4361461;32;34087;-83
2023/06/24 09:33:52;;;;;;;2.65;1.00;;;;;;;25.52;51.36;99434.00;4361485;32;34818;-85
2023/06/24 09:36:21;;;;;;;2.28;1.00;;;;;;;25.75;50.17;99425.88;4407892;27;33921;-81
2023/06/24 09:38:49;;;;;;;1.70;0.80;;;;;;;25.34;51.05;99425.03;4331579;33;33412;-84
2023/06/24 09:41:16;;;;;;;2.58;0.85;;;;;;;24.99;51.94;99430.03;4360081;32;34376;-81
2023/06/24 09:43:44;;;;;;;2.65;1.02;;;;;;;24.16;53.21;99428.03;4360645;32;33861;-83
2023/06/24 09:46:13;;;;;;;2.25;0.85;;;;;;;24.18;53.21;99420.06;4346665;32;33738;-85
2023/06/24 09:48:40;;;;;;;2.72;0.80;;;;;;;24.42;54.32;99436.81;4347451;32;34072;-82
2023/06/24 09:51:08;;;;;;;2.20;1.10;;;;;;;24.79;53.06;99443.28;4360809;32;33531;-84
2023/06/24 09:53:37;;;;;;;1.92;0.85;;;;;;;24.59;53.12;99433.50;4358995;32;33945;-86
2023/06/24 09:56:05;;;;;;;5.25;1.15;;;;;;;24.56;52.48;99425.66;4344690;32;34167;-87
2023/06/24 09:58:36;;;;;;;2.78;1.10;;;;;;;24.65;53.61;99423.47;4347754;32;34208;-86
2023/06/24 10:01:04;;;;;;;3.05;0.85;;;;;;;24.84;52.74;99430.69;4347425;32;34197;-83
2023/06/24 10:03:35;;;;;;;2.42;0.85;;;;;;;24.51;54.40;99417.91;4360944;32;34100;-82
2023/06/24 10:06:03;;;;;;;2.05;0.80;;;;;;;25.26;52.36;99400.63;4332653;33;34028;-82
2023/06/24 10:08:31;;;;;;;5.15;1.25;;;;;;;25.46;52.06;99403.31;4346448;33;34051;-86
2023/06/24 10:38:58;;;;;;;3.20;1.00;;;;;;;26.63;50.36;99396.06;4277944;30;20561;-87
2023/06/24 10:41:32;;;;;;;2.10;0.98;;;;;;;26.35;49.80;99385.91;4346181;32;34425;-89
2023/06/24 10:44:17;;;;;;;2.95;1.20;;;;;;;26.82;47.53;99388.03;4336601;32;34107;-86
2023/06/24 10:46:54;;;;;;;2.08;0.93;;;;;;;26.60;49.93;99390.94;4336482;32;33562;-86
2023/06/24 10:49:23;;;;;;;3.42;1.02;;;;;;;26.68;48.68;99391.41;4331149;32;34074;-87
2023/06/24 10:52:11;;;;;;;3.60;1.08;;;;;;;26.46;50.22;99401.38;4342223;32;33983;-93
2023/06/24 10:59:34;;;;;;;2.75;1.10;;;;;;;26.48;48.25;99399.47;4352284;32;34334;-88
2023/06/24 11:02:36;;;;;;;1.60;0.77;;;;;;;26.81;50.24;99408.47;4347262;32;34587;-87
2023/06/24 11:10:01;;;;;;;3.35;1.40;;;;;;;26.66;47.75;99409.22;4337499;33;33717;-85
2023/06/24 11:13:06;;;;;;;2.65;1.17;;;;;;;26.89;46.96;99395.62;4358277;27;33776;-95
2023/06/24 11:15:34;;;;;;;1.55;0.70;;;;;;;26.62;49.55;99412.97;4360374;32;33347;-90
2023/06/24 11:18:05;;;;;;;1.83;1.00;;;;;;;26.31;50.33;99409.13;4358540;32;34241;-84
2023/06/24 11:20:33;;;;;;;1.67;0.80;;;;;;;26.66;48.64;99403.91;4359201;32;34030;-84
2023/06/24 11:23:01;;;;;;;2.97;0.90;;;;;;;26.19;49.82;99409.72;4364284;32;33566;-89
2023/06/24 11:25:28;;;;;;;3.08;0.90;;;;;;;26.66;51.33;99404.75;4360577;32;33563;-86
2023/06/24 11:27:57;;;;;;;2.58;0.80;;;;;;;26.60;49.71;99398.91;4332394;33;34690;-83
2023/06/24 11:30:25;;;;;;;3.08;0.90;;;;;;;26.49;51.02;99399.44;4355348;32;34236;-85
2023/06/24 11:32:52;;;;;;;3.03;0.98;;;;;;;26.92;49.50;99391.97;4346726;32;33952;-92
2023/06/24 11:35:20;;;;;;;3.47;0.93;;;;;;;26.63;50.35;99388.09;4361009;32;34012;-88
2023/06/24 11:37:49;;;;;;;4.12;0.80;;;;;;;26.93;48.85;99380.38;4359584;32;34042;-95
2023/06/24 11:40:19;;;;;;;2.75;0.82;;;;;;;26.79;49.44;99380.25;4364351;32;34316;-85
2023/06/24 11:42:50;;;;;;;3.53;0.95;;;;;;;27.38;48.43;99378.97;4360522;32;33658;-87
2023/06/24 11:45:24;;;;;;;3.05;1.00;;;;;;;27.42;49.04;99367.22;4333548;33;34115;-89
2023/06/24 11:47:52;;;;;;;2.20;1.05;;;;;;;26.90;48.12;99354.81;4345669;33;34417;-93
2023/06/24 11:50:26;;;;;;;3.37;1.10;;;;;;;26.88;48.58;99359.34;4343436;33;33993;-90
2023/06/24 11:52:54;;;;;;;3.92;1.10;;;;;;;26.72;48.87;99360.19;4346568;32;34582;-87
2023/06/24 11:55:23;;;;;;;1.55;0.80;;;;;;;27.07;47.48;99343.28;4344931;33;34461;-84
2023/06/24 11:57:54;;;;;;;1.73;0.95;;;;;;;27.00;49.40;99349.00;4334038;33;34384;-85
2023/06/24 12:00:42;;;;;;;4.68;1.08;;;;;;;26.88;49.64;99353.16;4350636;32;33905;-93
2023/06/24 12:03:11;;;;;;;3.30;1.08;;;;;;;26.86;49.91;99357.72;4327422;33;33296;-92
2023/06/24 12:05:44;;;;;;;2.37;0.90;;;;;;;26.55;50.93;99358.38;4329250;32;33894;-84
2023/06/24 12:08:16;;;;;;;2.55;1.10;;;;;;;26.52;50.31;99362.06;4331329;33;34196;-82
2023/06/24 12:10:44;;;;;;;3.78;1.30;;;;;;;26.04;52.03;99351.97;4341036;33;34858;-90
2023/06/24 12:13:12;;;;;;;6.20;1.33;;;;;;;26.58;49.94;99345.78;4345575;33;33704;-82
2023/06/24 12:15:40;;;;;;;2.40;1.08;;;;;;;26.89;49.25;99349.53;4332059;33;33694;-81
2023/06/24 12:18:08;;;;;;;2.28;1.05;;;;;;;26.64;50.22;99345.50;4344227;33;33331;-87